Time;durP1;ratioP1;P1;durP2;ratioP2;P2;SDS_P1;SDS_P2;PMS_P1;PMS_P2;Temp;Humidity;BMP_temperature;BMP_pressure;BME280_temperature;BME280_humidity;BME280_pressure;Samples;Min_cycle;Max_cycle;Signal;HPM_P1;HPM_P2
2021/08/31 00:00:32;;;;;;;8.90;7.07;;;24.10;66.70;;;;;;6161982;22;85839;-13
2021/08/31 00:02:57;;;;;;;8.35;6.72;;;24.10;66.70;;;;;;6162850;22;88154;-14
2021/08/31 00:05:23;;;;;;;8.48;7.10;;;24.00;66.60;;;;;;6162590;22;85925;-13
2021/08/31 00:07:48;;;;;;;8.52;7.18;;;24.00;66.70;;;;;;6162949;22;85633;-13
2021/08/31 00:10:14;;;;;;;8.70;6.88;;;24.00;66.70;;;;;;6162334;22;85630;-14
2021/08/31 00:12:43;;;;;;;9.90;7.03;;;24.00;66.70;;;;;;6161918;22;86442;-13
2021/08/31 00:15:12;;;;;;;8.60;6.50;;;24.00;66.70;;;;;;6162304;22;86428;-14
2021/08/31 00:17:38;;;;;;;8.98;6.65;;;24.00;66.70;;;;;;6162513;22;85677;-14
2021/08/31 00:20:10;;;;;;;9.15;6.95;;;24.00;66.70;;;;;;6162361;22;86092;-14
2021/08/31 00:22:36;;;;;;;9.00;6.82;;;24.00;66.70;;;;;;6160284;22;86825;-14
2021/08/31 00:25:06;;;;;;;8.75;6.65;;;24.00;66.70;;;;;;6134220;22;89727;-13
2021/08/31 00:27:32;;;;;;;8.15;6.57;;;24.00;66.70;;;;;;6162233;22;85955;-13
2021/08/31 00:29:58;;;;;;;8.95;6.25;;;24.00;66.70;;;;;;6162227;22;85684;-13
2021/08/31 00:32:23;;;;;;;9.02;6.93;;;24.00;66.70;;;;;;6162186;22;86325;-14
2021/08/31 00:34:51;;;;;;;8.50;6.90;;;24.00;66.70;;;;;;6161837;22;86961;-13
2021/08/31 00:37:20;;;;;;;7.90;6.60;;;24.00;66.80;;;;;;6162570;22;85707;-13
2021/08/31 00:39:46;;;;;;;7.82;6.80;;;23.90;66.70;;;;;;6162088;22;85629;-14
2021/08/31 00:42:11;;;;;;;7.20;6.07;;;24.00;66.70;;;;;;6161096;22;86237;-13
2021/08/31 00:44:37;;;;;;;7.65;6.07;;;23.90;66.70;;;;;;6161074;22;85838;-14
2021/08/31 00:47:03;;;;;;;7.75;6.47;;;23.90;66.70;;;;;;6161920;22;85616;-14
2021/08/31 00:49:30;;;;;;;7.22;6.15;;;24.00;66.80;;;;;;6161762;22;85952;-13
2021/08/31 00:51:59;;;;;;;9.18;6.97;;;23.90;66.70;;;;;;6161592;22;86843;-14
2021/08/31 00:57:16;;;;;;;8.57;6.75;;;23.90;66.80;;;;;;6098742;23;85855;-13
2021/08/31 00:59:42;;;;;;;8.52;6.57;;;23.90;66.80;;;;;;6100000;23;85870;-15
2021/08/31 01:02:13;;;;;;;9.35;7.00;;;23.90;66.80;;;;;;6099065;23;86947;-14
2021/08/31 01:04:42;;;;;;;8.70;6.57;;;23.90;66.80;;;;;;6099866;23;86499;-13
2021/08/31 01:07:08;;;;;;;7.25;5.88;;;23.90;66.80;;;;;;6075704;23;86026;-14
2021/08/31 01:09:37;;;;;;;9.57;6.50;;;23.90;66.80;;;;;;6099966;23;86093;-13
2021/08/31 01:12:03;;;;;;;9.63;7.00;;;23.90;66.80;;;;;;6099521;23;86850;-13
2021/08/31 01:14:30;;;;;;;8.05;6.88;;;23.90;66.80;;;;;;6098567;23;85789;-13
2021/08/31 01:16:56;;;;;;;8.38;6.60;;;23.90;66.80;;;;;;6075431;23;86694;-14
2021/08/31 01:19:31;;;;;;;8.07;6.63;;;23.90;66.80;;;;;;6074719;23;85998;-14
2021/08/31 01:22:03;;;;;;;8.23;6.90;;;23.90;66.90;;;;;;6098833;23;89864;-14
2021/08/31 01:24:30;;;;;;;7.77;6.60;;;23.90;67.40;;;;;;6073864;23;89663;-13
2021/08/31 01:26:58;;;;;;;6.60;5.82;;;23.90;66.90;;;;;;6097996;23;85965;-13
2021/08/31 01:29:27;;;;;;;8.23;6.72;;;23.90;66.90;;;;;;6160078;22;86107;-13
2021/08/31 01:31:53;;;;;;;9.25;6.78;;;23.90;66.90;;;;;;6162078;22;86769;-14
2021/08/31 01:34:21;;;;;;;8.20;6.40;;;23.90;66.90;;;;;;6161786;22;85909;-13
2021/08/31 01:36:47;;;;;;;9.57;6.70;;;23.90;66.90;;;;;;6160909;22;86306;-15
2021/08/31 01:39:13;;;;;;;11.90;6.85;;;23.90;66.90;;;;;;6134149;22;85851;-13
2021/08/31 01:41:42;;;;;;;7.13;6.25;;;23.80;66.80;;;;;;6159774;22;86158;-14
2021/08/31 01:44:10;;;;;;;8.02;6.07;;;23.80;66.80;;;;;;6159207;22;86436;-13
2021/08/31 01:46:36;;;;;;;8.23;5.95;;;23.90;66.90;;;;;;6133950;22;85733;-14
2021/08/31 01:49:04;;;;;;;8.85;6.60;;;23.90;66.90;;;;;;6160161;22;85574;-14
2021/08/31 01:51:29;;;;;;;7.63;6.45;;;23.80;66.80;;;;;;6135574;22;89965;-17
2021/08/31 01:54:07;;;;;;;6.88;6.13;;;23.80;66.90;;;;;;6163081;22;86577;-13
2021/08/31 01:56:33;;;;;;;6.65;5.90;;;23.80;66.80;;;;;;6163118;22;85512;-13
2021/08/31 01:58:58;;;;;;;7.43;6.20;;;23.80;66.80;;;;;;6162756;22;85572;-15
2021/08/31 02:01:29;;;;;;;7.43;6.10;;;23.80;66.90;;;;;;6163200;22;86909;-13
2021/08/31 02:03:54;;;;;;;7.13;5.88;;;23.80;66.90;;;;;;6162560;22;86318;-13
2021/08/31 02:06:21;;;;;;;7.93;6.30;;;23.80;66.90;;;;;;6162776;22;85512;-13
2021/08/31 02:08:46;;;;;;;8.57;5.85;;;23.80;66.90;;;;;;6162645;22;85640;-14
2021/08/31 02:11:12;;;;;;;7.75;6.07;;;23.80;66.80;;;;;;6162426;22;86891;-13
2021/08/31 02:13:37;;;;;;;7.50;5.95;;;23.80;66.80;;;;;;6162157;22;86369;-15
2021/08/31 02:16:08;;;;;;;7.97;6.15;;;23.80;66.80;;;;;;6163020;22;85738;-13
2021/08/31 02:18:38;;;;;;;6.72;5.75;;;23.80;66.90;;;;;;6163468;22;85740;-13
2021/08/31 02:21:11;;;;;;;6.65;5.95;;;23.80;66.80;;;;;;6163787;22;87829;-13
2021/08/31 02:23:38;;;;;;;7.13;6.17;;;23.80;66.80;;;;;;6162944;22;86073;-13
2021/08/31 02:26:07;;;;;;;6.47;5.82;;;23.80;66.90;;;;;;6163143;22;85754;-13
2021/08/31 02:28:32;;;;;;;7.13;6.15;;;23.80;66.90;;;;;;6136317;22;86043;-13
2021/08/31 02:30:58;;;;;;;6.57;5.70;;;23.80;66.90;;;;;;6161914;22;86788;-14
2021/08/31 02:33:24;;;;;;;7.15;6.10;;;23.80;66.90;;;;;;6112017;22;88032;-14
2021/08/31 02:35:54;;;;;;;7.07;6.18;;;23.80;66.90;;;;;;6162158;22;85475;-13
2021/08/31 02:38:20;;;;;;;7.55;6.22;;;23.80;66.90;;;;;;6136317;22;85771;-14
2021/08/31 02:40:47;;;;;;;8.75;6.15;;;23.80;66.80;;;;;;6161975;22;86788;-13
2021/08/31 02:43:13;;;;;;;6.88;5.57;;;23.80;66.80;;;;;;6136592;22;88100;-13
2021/08/31 02:45:41;;;;;;;8.48;6.07;;;23.80;66.90;;;;;;6163532;22;86088;-13
2021/08/31 02:48:10;;;;;;;6.90;5.82;;;23.80;66.90;;;;;;6162837;22;85738;-13
2021/08/31 02:50:38;;;;;;;7.03;6.32;;;23.70;66.80;;;;;;6163175;22;86882;-13
2021/08/31 02:53:04;;;;;;;8.00;6.10;;;23.80;66.90;;;;;;6162354;22;86311;-13
2021/08/31 02:55:33;;;;;;;6.78;5.63;;;23.80;66.90;;;;;;6162525;22;85683;-13
2021/08/31 02:57:58;;;;;;;6.93;5.88;;;23.80;66.90;;;;;;6163525;22;85840;-13
2021/08/31 03:00:33;;;;;;;6.90;6.20;;;23.80;66.90;;;;;;6162535;22;86116;-14
2021/08/31 03:03:06;;;;;;;6.15;5.53;;;23.80;66.90;;;;;;6135721;22;90267;-14
2021/08/31 03:05:31;;;;;;;7.30;6.22;;;23.80;66.90;;;;;;6162026;22;85655;-13
2021/08/31 03:07:57;;;;;;;8.63;6.40;;;23.70;66.90;;;;;;6162301;22;85851;-14
2021/08/31 03:10:23;;;;;;;8.10;6.28;;;23.80;66.90;;;;;;6163103;22;86323;-13
2021/08/31 03:12:49;;;;;;;7.47;5.50;;;23.80;66.90;;;;;;6161659;22;85763;-13
2021/08/31 03:15:18;;;;;;;6.35;5.72;;;23.70;66.80;;;;;;6162188;22;85964;-13
2021/08/31 03:17:43;;;;;;;8.05;6.63;;;23.70;66.90;;;;;;6163056;22;85611;-14
2021/08/31 03:20:10;;;;;;;6.75;6.05;;;23.70;66.80;;;;;;6161957;22;86173;-13
2021/08/31 03:22:35;;;;;;;7.20;5.97;;;23.70;66.90;;;;;;6162683;22;88496;-13
2021/08/31 03:25:03;;;;;;;8.68;5.88;;;23.70;66.90;;;;;;6162608;22;85570;-13
2021/08/31 03:27:29;;;;;;;7.50;5.90;;;23.70;66.90;;;;;;6162014;22;85634;-13
2021/08/31 03:29:54;;;;;;;6.25;5.55;;;23.70;66.90;;;;;;6162312;22;87285;-15
2021/08/31 03:32:20;;;;;;;6.88;5.63;;;23.70;66.90;;;;;;6136087;22;87110;-14
2021/08/31 03:34:48;;;;;;;9.40;6.05;;;23.70;66.90;;;;;;6162320;22;85778;-14
2021/08/31 03:37:14;;;;;;;7.65;5.50;;;23.70;66.90;;;;;;6161409;22;85622;-13
2021/08/31 03:39:39;;;;;;;7.40;6.05;;;23.70;67.40;;;;;;6161027;22;86901;-14
2021/08/31 03:42:07;;;;;;;6.30;5.45;;;23.70;66.90;;;;;;6162111;22;87354;-14
2021/08/31 03:44:33;;;;;;;6.88;5.93;;;23.70;66.90;;;;;;6161498;22;85632;-13
2021/08/31 03:46:59;;;;;;;6.38;5.55;;;23.70;66.90;;;;;;6162651;22;85877;-13
2021/08/31 03:49:27;;;;;;;6.20;5.30;;;23.70;66.90;;;;;;6162461;22;85728;-13
2021/08/31 03:51:55;;;;;;;7.07;5.97;;;23.70;66.90;;;;;;6162063;22;86105;-14
2021/08/31 03:54:23;;;;;;;7.55;5.90;;;23.70;66.90;;;;;;6162802;22;85885;-13
2021/08/31 03:56:49;;;;;;;6.25;5.65;;;23.70;66.90;;;;;;6162150;22;85760;-13
2021/08/31 03:59:15;;;;;;;6.35;5.65;;;23.70;66.90;;;;;;6161026;22;86249;-13
2021/08/31 04:01:40;;;;;;;7.40;6.20;;;23.70;66.90;;;;;;6161771;22;86553;-13
2021/08/31 04:04:06;;;;;;;6.85;5.90;;;23.70;66.90;;;;;;6162892;22;85616;-13
2021/08/31 04:06:31;;;;;;;6.07;5.47;;;23.70;66.90;;;;;;6162693;22;85696;-15
2021/08/31 04:08:59;;;;;;;6.35;5.70;;;23.70;66.90;;;;;;6162456;22;86730;-14
2021/08/31 04:11:28;;;;;;;6.18;5.40;;;23.70;66.90;;;;;;6162735;22;86336;-13
2021/08/31 04:13:53;;;;;;;6.10;5.50;;;23.70;66.90;;;;;;6161816;22;85601;-14
2021/08/31 04:16:22;;;;;;;7.50;5.90;;;23.70;66.90;;;;;;6162361;22;85711;-14
2021/08/31 04:18:47;;;;;;;8.32;6.00;;;23.70;66.90;;;;;;6161259;22;85710;-15
2021/08/31 04:21:13;;;;;;;7.32;5.97;;;23.70;66.90;;;;;;6161508;22;85833;-14
2021/08/31 04:23:41;;;;;;;7.28;5.78;;;23.70;66.90;;;;;;6161083;22;85819;-13
2021/08/31 04:26:06;;;;;;;6.35;5.75;;;23.70;66.90;;;;;;6161173;22;85831;-14
2021/08/31 04:28:32;;;;;;;6.35;5.60;;;23.70;66.90;;;;;;6162548;22;86208;-13
2021/08/31 04:30:57;;;;;;;6.45;5.53;;;23.70;66.90;;;;;;6162462;22;86697;-14
2021/08/31 04:33:23;;;;;;;6.50;5.30;;;23.70;66.90;;;;;;6162574;22;85947;-13
2021/08/31 04:35:48;;;;;;;5.88;5.28;;;23.70;66.90;;;;;;6162590;22;85682;-13
2021/08/31 04:38:17;;;;;;;6.82;5.88;;;23.60;66.80;;;;;;6161596;22;86682;-13
2021/08/31 04:40:42;;;;;;;6.82;5.90;;;23.60;66.80;;;;;;6161160;22;85861;-13
2021/08/31 04:43:08;;;;;;;6.25;5.65;;;23.60;66.80;;;;;;6162389;22;85722;-13
2021/08/31 04:45:34;;;;;;;6.57;5.60;;;23.60;66.80;;;;;;6162862;22;85871;-13
2021/08/31 04:47:59;;;;;;;7.53;5.75;;;23.60;66.80;;;;;;6161684;22;88213;-14
2021/08/31 04:50:25;;;;;;;5.50;4.88;;;23.60;66.80;;;;;;6159995;22;85944;-13
2021/08/31 04:52:53;;;;;;;6.28;5.68;;;23.60;66.90;;;;;;6162249;22;85670;-14
2021/08/31 04:55:20;;;;;;;6.72;5.78;;;23.60;66.90;;;;;;6162006;22;85666;-14
2021/08/31 04:57:45;;;;;;;6.13;5.53;;;23.60;66.90;;;;;;6162213;22;87209;-14
2021/08/31 05:00:11;;;;;;;6.07;5.47;;;23.60;66.90;;;;;;6160850;22;86079;-14
2021/08/31 05:02:40;;;;;;;5.85;5.25;;;23.60;66.90;;;;;;6161755;22;86121;-13
2021/08/31 05:05:06;;;;;;;6.80;5.97;;;23.60;66.90;;;;;;6162145;22;85920;-15
2021/08/31 05:07:34;;;;;;;6.05;5.45;;;23.60;66.90;;;;;;6160349;22;88144;-13
2021/08/31 05:10:00;;;;;;;6.10;5.22;;;23.60;66.90;;;;;;6161309;22;87497;-14
2021/08/31 05:12:25;;;;;;;6.55;5.85;;;23.60;66.90;;;;;;6135690;22;86991;-13
2021/08/31 05:14:54;;;;;;;6.38;5.32;;;23.60;66.90;;;;;;6135598;22;85886;-14
2021/08/31 05:17:19;;;;;;;6.28;5.43;;;23.60;67.40;;;;;;6161228;22;86122;-14
2021/08/31 05:19:47;;;;;;;5.85;5.13;;;23.60;66.90;;;;;;6135635;22;89395;-15
2021/08/31 05:22:16;;;;;;;6.28;5.55;;;23.60;66.90;;;;;;6160698;22;85658;-14
2021/08/31 05:24:42;;;;;;;6.05;5.45;;;23.60;66.90;;;;;;6160776;22;85970;-14
2021/08/31 05:27:13;;;;;;;6.32;5.55;;;23.60;66.90;;;;;;6162566;22;85682;-13
2021/08/31 05:29:41;;;;;;;6.88;5.40;;;23.60;66.90;;;;;;6163899;22;86344;-13
2021/08/31 05:32:07;;;;;;;8.07;5.97;;;23.60;66.90;;;;;;6163955;22;86420;-13
2021/08/31 05:34:33;;;;;;;6.65;5.68;;;23.60;66.90;;;;;;6163894;22;85699;-14
2021/08/31 05:37:03;;;;;;;6.32;5.03;;;23.60;66.90;;;;;;6136981;22;87961;-14
2021/08/31 05:39:34;;;;;;;6.55;5.38;;;23.60;66.90;;;;;;6160908;22;86331;-15
2021/08/31 05:42:02;;;;;;;6.65;5.72;;;23.60;66.90;;;;;;6160988;22;86448;-14
2021/08/31 05:44:35;;;;;;;6.40;5.22;;;23.60;66.90;;;;;;6135693;22;85942;-14
2021/08/31 05:47:01;;;;;;;6.20;5.40;;;23.60;66.90;;;;;;6162002;22;86707;-14
2021/08/31 05:49:27;;;;;;;30.50;13.35;;;23.60;66.80;;;;;;6162221;22;85891;-13
2021/08/31 05:51:53;;;;;;;112.28;33.47;;;23.60;66.40;;;;;;6161799;22;85708;-13
2021/08/31 05:54:21;;;;;;;90.55;31.00;;;23.50;65.40;;;;;;6161989;22;85786;-13
2021/08/31 05:56:50;;;;;;;66.00;23.88;;;23.50;65.00;;;;;;6136009;22;89936;-14
2021/08/31 05:59:16;;;;;;;38.97;18.55;;;23.50;64.80;;;;;;6159736;22;88100;-14
2021/08/31 06:01:44;;;;;;;40.58;17.13;;;23.50;64.90;;;;;;6159974;22;86392;-13
2021/08/31 06:04:12;;;;;;;41.53;16.55;;;23.50;65.00;;;;;;6156637;22;87439;-14
2021/08/31 06:06:41;;;;;;;38.97;16.13;;;23.50;65.50;;;;;;6131557;22;87335;-14
2021/08/31 06:09:07;;;;;;;46.30;18.17;;;23.50;65.60;;;;;;6156854;22;89021;-15
2021/08/31 06:11:39;;;;;;;37.40;17.17;;;23.50;65.70;;;;;;6158513;22;88512;-13
2021/08/31 06:14:06;;;;;;;41.08;17.90;;;23.50;65.80;;;;;;6159906;22;87155;-15
2021/08/31 06:16:31;;;;;;;39.72;16.63;;;23.60;66.50;;;;;;6159425;22;88348;-15
2021/08/31 06:18:59;;;;;;;41.70;17.40;;;23.60;65.80;;;;;;6131872;22;91127;-13
2021/08/31 06:21:28;;;;;;;36.63;16.58;;;23.60;66.00;;;;;;6159680;22;87275;-15
2021/08/31 06:23:54;;;;;;;37.55;16.98;;;23.60;66.00;;;;;;6155121;22;86919;-14
2021/08/31 06:26:22;;;;;;;36.92;16.65;;;23.60;66.20;;;;;;6158512;22;86781;-14
2021/08/31 06:28:48;;;;;;;38.83;17.17;;;23.60;66.20;;;;;;6158300;22;88226;-14
2021/08/31 06:31:14;;;;;;;34.58;16.17;;;23.60;66.30;;;;;;6158074;22;87433;-13
2021/08/31 06:33:40;;;;;;;34.13;16.73;;;23.60;66.20;;;;;;6141080;22;88064;-14
2021/08/31 06:36:08;;;;;;;31.88;15.00;;;23.60;66.30;;;;;;6127540;22;87049;-13
2021/08/31 06:38:33;;;;;;;34.00;15.60;;;23.70;66.50;;;;;;6126624;22;88281;-14
2021/08/31 06:40:59;;;;;;;32.15;15.35;;;23.70;66.30;;;;;;6127100;23;88458;-14
2021/08/31 06:43:25;;;;;;;32.63;16.27;;;23.70;66.40;;;;;;6127967;23;87086;-13
2021/08/31 06:45:50;;;;;;;35.35;16.63;;;23.70;66.60;;;;;;6127324;23;87548;-16
2021/08/31 06:48:16;;;;;;;34.85;16.70;;;23.70;66.50;;;;;;6127409;23;87615;-14
2021/08/31 06:50:41;;;;;;;32.33;16.38;;;23.70;66.60;;;;;;6127363;23;87759;-14
2021/08/31 06:53:09;;;;;;;32.90;16.35;;;23.70;66.80;;;;;;6127668;23;87366;-14
2021/08/31 06:55:37;;;;;;;33.78;16.00;;;23.70;66.90;;;;;;6126949;23;89262;-14
2021/08/31 06:58:02;;;;;;;34.65;16.20;;;23.70;66.70;;;;;;6127099;23;89184;-15
2021/08/31 07:00:28;;;;;;;26.20;14.98;;;23.80;66.70;;;;;;6127137;23;88572;-14
2021/08/31 07:02:54;;;;;;;33.22;16.20;;;23.80;66.60;;;;;;6127927;23;87183;-14
2021/08/31 07:05:20;;;;;;;34.30;16.40;;;23.70;66.70;;;;;;6128204;23;87428;-14
2021/08/31 07:07:45;;;;;;;29.58;15.38;;;23.80;66.90;;;;;;6126555;23;90944;-14
2021/08/31 07:10:11;;;;;;;30.02;15.55;;;23.80;67.00;;;;;;6127642;23;88882;-15
2021/08/31 07:12:37;;;;;;;32.67;15.35;;;23.70;67.00;;;;;;6128037;23;87300;-16
2021/08/31 07:15:04;;;;;;;26.77;15.18;;;23.70;67.00;;;;;;6127282;23;86961;-15
2021/08/31 07:17:32;;;;;;;30.77;15.45;;;23.70;67.00;;;;;;6130097;22;88765;-15
2021/08/31 07:19:58;;;;;;;29.88;15.45;;;23.70;67.20;;;;;;6159242;22;89364;-15
2021/08/31 07:22:24;;;;;;;31.25;15.70;;;23.70;67.50;;;;;;6158398;22;87951;-14
2021/08/31 07:24:49;;;;;;;28.65;15.23;;;23.70;67.60;;;;;;6159152;22;87338;-14
2021/08/31 07:27:15;;;;;;;35.05;16.63;;;23.70;67.60;;;;;;6158270;22;88218;-15
2021/08/31 07:29:41;;;;;;;25.88;14.50;;;23.70;68.10;;;;;;6157439;22;88408;-15
2021/08/31 07:32:07;;;;;;;24.42;13.75;;;23.70;67.60;;;;;;6157868;22;87226;-14
2021/08/31 07:34:34;;;;;;;23.30;14.63;;;23.80;66.40;;;;;;6157685;22;87247;-15
2021/08/31 07:37:00;;;;;;;27.13;14.77;;;23.70;66.80;;;;;;6156828;22;87452;-14
2021/08/31 07:39:26;;;;;;;25.83;13.80;;;23.70;66.90;;;;;;6156078;22;87934;-15
2021/08/31 07:41:52;;;;;;;30.80;14.30;;;23.80;67.10;;;;;;6106640;22;87496;-14
2021/08/31 07:44:17;;;;;;;24.67;14.75;;;23.70;67.40;;;;;;6156907;22;87267;-15
2021/08/31 07:46:46;;;;;;;29.38;15.55;;;23.70;67.60;;;;;;6156375;22;88571;-14
2021/08/31 07:49:13;;;;;;;23.52;13.93;;;23.70;67.60;;;;;;6158263;22;88376;-15
2021/08/31 07:51:39;;;;;;;25.40;13.98;;;23.70;67.70;;;;;;6159122;22;87133;-13
2021/08/31 07:54:05;;;;;;;23.40;14.80;;;23.70;68.10;;;;;;6158465;22;86921;-13
2021/08/31 07:56:30;;;;;;;27.30;15.07;;;23.80;68.40;;;;;;6158587;22;87297;-14
2021/08/31 07:58:56;;;;;;;21.77;14.60;;;23.70;68.40;;;;;;6158763;22;87917;-15
2021/08/31 08:01:22;;;;;;;24.63;14.93;;;23.70;68.90;;;;;;6158758;22;86988;-15
2021/08/31 08:03:48;;;;;;;26.17;15.30;;;23.70;69.20;;;;;;6159161;22;86113;-14
2021/08/31 08:06:13;;;;;;;21.70;13.48;;;23.70;69.20;;;;;;6159103;22;87568;-14
2021/08/31 08:08:39;;;;;;;23.02;13.10;;;23.60;68.40;;;;;;6159279;22;87403;-14
2021/08/31 08:11:05;;;;;;;17.58;12.75;;;23.60;67.60;;;;;;6159161;22;87985;-15
2021/08/31 08:13:30;;;;;;;18.50;12.25;;;23.60;67.00;;;;;;6158154;22;86990;-14
2021/08/31 08:15:56;;;;;;;19.88;12.80;;;23.60;66.60;;;;;;6132639;22;89315;-15
2021/08/31 08:18:24;;;;;;;17.50;11.57;;;23.60;66.20;;;;;;6158504;22;87683;-15
2021/08/31 08:20:49;;;;;;;15.65;11.60;;;23.60;65.80;;;;;;6158832;22;87859;-14
2021/08/31 08:23:18;;;;;;;14.93;11.55;;;23.50;65.30;;;;;;6132847;22;90283;-14
2021/08/31 08:25:46;;;;;;;18.58;10.57;;;23.50;65.10;;;;;;6159185;22;87030;-11
2021/08/31 08:28:11;;;;;;;15.95;11.32;;;23.50;64.80;;;;;;6160369;22;87679;-12
2021/08/31 08:30:40;;;;;;;15.43;10.95;;;23.50;64.30;;;;;;6159706;22;86949;-12
2021/08/31 08:33:06;;;;;;;14.68;10.85;;;23.50;64.80;;;;;;6159282;22;87060;-11
2021/08/31 08:35:31;;;;;;;16.17;9.90;;;23.50;64.20;;;;;;6157881;22;88545;-11
2021/08/31 08:38:02;;;;;;;13.70;10.38;;;23.50;64.00;;;;;;6159001;22;89190;-12
2021/08/31 08:40:34;;;;;;;14.38;9.95;;;23.50;63.80;;;;;;6157313;22;87120;-12
2021/08/31 08:43:07;;;;;;;15.05;10.48;;;23.50;63.60;;;;;;6158737;22;87008;-12
2021/08/31 08:45:36;;;;;;;17.93;11.20;;;23.50;63.30;;;;;;6158594;22;87245;-12
2021/08/31 08:48:02;;;;;;;14.75;10.05;;;23.50;63.50;;;;;;6158599;22;87572;-14
2021/08/31 08:50:28;;;;;;;19.75;10.82;;;23.50;64.30;;;;;;6133218;22;87637;-15
2021/08/31 08:52:54;;;;;;;15.55;9.90;;;23.50;64.20;;;;;;6159468;22;87158;-15
2021/08/31 08:55:24;;;;;;;14.70;10.05;;;23.50;64.20;;;;;;6133287;22;89792;-14
2021/08/31 08:57:50;;;;;;;14.25;9.80;;;23.60;64.30;;;;;;6157789;22;87285;-16
2021/08/31 09:00:18;;;;;;;15.25;10.25;;;23.60;64.30;;;;;;6157451;22;88050;-15
2021/08/31 09:02:50;;;;;;;14.27;11.07;;;23.50;64.30;;;;;;6156931;22;87871;-14
2021/08/31 09:05:36;;;;;;;12.65;9.82;;;23.60;64.20;;;;;;6156702;22;87701;-15
2021/08/31 09:08:05;;;;;;;15.07;9.82;;;23.60;64.30;;;;;;6158567;22;87855;-15
2021/08/31 09:10:31;;;;;;;17.08;10.25;;;23.60;64.20;;;;;;6158918;22;87086;-14
2021/08/31 09:12:57;;;;;;;15.15;10.38;;;23.60;64.20;;;;;;6158185;22;87066;-14
2021/08/31 09:15:38;;;;;;;14.68;10.00;;;23.60;64.20;;;;;;6158491;22;87189;-15
2021/08/31 09:18:04;;;;;;;13.85;9.40;;;23.60;64.30;;;;;;6159218;22;87344;-15
2021/08/31 09:20:36;;;;;;;11.77;8.85;;;23.70;64.30;;;;;;6159673;22;87295;-14
2021/08/31 09:23:05;;;;;;;14.75;8.95;;;23.70;64.90;;;;;;6159666;22;87179;-15
2021/08/31 09:25:37;;;;;;;16.77;9.35;;;23.70;64.90;;;;;;6158147;22;89193;-13
2021/08/31 09:28:21;;;;;;;13.55;8.70;;;23.70;64.40;;;;;;6158875;22;87678;-14
2021/08/31 09:31:06;;;;;;;13.23;9.10;;;23.70;64.50;;;;;;6159636;22;87501;-14
2021/08/31 09:33:37;;;;;;;11.25;8.48;;;23.70;64.40;;;;;;6159472;22;86987;-15
2021/08/31 09:36:03;;;;;;;12.25;8.60;;;23.70;64.50;;;;;;6159669;22;88444;-25
2021/08/31 09:38:50;;;;;;;12.40;8.30;;;23.70;64.40;;;;;;6160154;22;87660;-15
2021/08/31 09:41:34;;;;;;;12.77;8.48;;;23.70;64.60;;;;;;6159856;22;86958;-14
2021/08/31 09:44:06;;;;;;;12.10;8.20;;;23.70;64.80;;;;;;6159704;22;87467;-14
2021/08/31 09:46:56;;;;;;;15.38;8.60;;;23.70;64.80;;;;;;6159433;22;87862;-14
2021/08/31 09:49:41;;;;;;;15.15;8.35;;;23.80;65.00;;;;;;6158106;22;87297;-15
2021/08/31 09:52:09;;;;;;;13.95;8.82;;;23.70;65.00;;;;;;6158593;22;87983;-14
2021/08/31 09:54:48;;;;;;;18.73;8.95;;;23.70;65.20;;;;;;6158525;22;88088;-13
2021/08/31 09:57:26;;;;;;;10.63;8.18;;;23.80;65.30;;;;;;6158515;22;87552;-15
2021/08/31 09:59:52;;;;;;;12.07;8.23;;;23.70;65.30;;;;;;6156391;22;90991;-14
2021/08/31 10:02:19;;;;;;;12.50;8.15;;;23.80;65.30;;;;;;6157789;22;87541;-15
2021/08/31 10:04:45;;;;;;;11.80;8.80;;;23.80;65.50;;;;;;6157071;22;87354;-15
2021/08/31 10:07:12;;;;;;;15.60;8.73;;;23.80;65.60;;;;;;6157358;22;88089;-15
2021/08/31 10:09:38;;;;;;;13.00;8.55;;;23.80;65.60;;;;;;6157068;22;89246;-14
2021/08/31 10:12:08;;;;;;;20.45;9.18;;;23.80;65.70;;;;;;6157958;22;86950;-13
2021/08/31 10:14:38;;;;;;;15.23;7.93;;;23.80;66.00;;;;;;6159207;22;87377;-14
2021/08/31 10:17:07;;;;;;;18.20;9.73;;;23.80;66.00;;;;;;6158445;22;88966;-14
2021/08/31 10:19:33;;;;;;;16.42;8.88;;;23.80;66.20;;;;;;6158984;22;88759;-14
2021/08/31 10:22:00;;;;;;;12.32;8.23;;;23.80;66.80;;;;;;6159370;22;87050;-15
2021/08/31 10:24:25;;;;;;;10.88;8.30;;;23.80;66.30;;;;;;6158428;22;87204;-14
2021/08/31 10:26:53;;;;;;;14.52;8.63;;;23.80;66.30;;;;;;6158662;22;87865;-14
2021/08/31 10:29:22;;;;;;;13.75;8.35;;;23.80;66.50;;;;;;6159021;22;88429;-14
2021/08/31 10:31:49;;;;;;;14.98;8.68;;;23.80;66.30;;;;;;6159840;22;87055;-14
2021/08/31 10:34:31;;;;;;;12.93;8.55;;;23.80;66.20;;;;;;6158141;22;86761;-15
2021/08/31 10:36:59;;;;;;;14.52;8.68;;;23.80;66.00;;;;;;6158366;22;87282;-14
2021/08/31 10:39:41;;;;;;;12.50;8.30;;;23.80;66.00;;;;;;6157713;22;87716;-14
2021/08/31 10:42:26;;;;;;;11.82;8.18;;;23.90;66.60;;;;;;6156690;22;87976;-15
2021/08/31 10:44:54;;;;;;;11.88;8.02;;;23.80;65.90;;;;;;6158448;22;87100;-15
2021/08/31 10:47:34;;;;;;;12.32;8.18;;;23.80;66.10;;;;;;6157362;22;88167;-15
2021/08/31 10:50:00;;;;;;;14.00;8.88;;;23.90;66.10;;;;;;6157403;22;88562;-14
2021/08/31 10:52:34;;;;;;;11.70;8.70;;;23.80;66.30;;;;;;6157819;22;87338;-14
2021/08/31 10:55:00;;;;;;;13.55;9.15;;;23.80;66.30;;;;;;6159195;22;87325;-14
2021/08/31 10:57:35;;;;;;;13.13;8.95;;;23.80;66.40;;;;;;6158234;22;87723;-14
2021/08/31 11:00:03;;;;;;;12.05;8.57;;;23.80;66.60;;;;;;6157853;22;88437;-15
2021/08/31 11:02:51;;;;;;;13.07;8.23;;;23.80;66.80;;;;;;6131434;22;87118;-15
2021/08/31 11:05:21;;;;;;;12.38;8.68;;;23.80;66.90;;;;;;6157714;22;87556;-14
2021/08/31 11:07:50;;;;;;;15.45;9.15;;;23.80;66.90;;;;;;6157239;22;89940;-14
2021/08/31 11:10:23;;;;;;;13.68;8.70;;;23.80;66.80;;;;;;6156612;22;91028;-14
2021/08/31 11:12:50;;;;;;;17.90;9.82;;;23.90;66.60;;;;;;6156901;22;88085;-14
2021/08/31 11:15:24;;;;;;;15.30;9.00;;;23.90;66.50;;;;;;6156553;22;89054;-15
2021/08/31 11:17:51;;;;;;;14.10;9.18;;;23.90;66.50;;;;;;6131790;22;90238;-15
2021/08/31 11:20:26;;;;;;;11.63;9.18;;;23.90;66.50;;;;;;6158941;22;89260;-15
2021/08/31 11:23:19;;;;;;;15.20;8.45;;;23.90;66.50;;;;;;6158675;22;86970;-14
2021/08/31 11:25:54;;;;;;;15.68;9.07;;;23.90;66.40;;;;;;6158555;22;87561;-14
2021/08/31 11:28:29;;;;;;;12.15;8.77;;;24.00;66.40;;;;;;6131278;22;90430;-15
2021/08/31 11:31:16;;;;;;;15.85;9.15;;;24.00;66.30;;;;;;6157644;22;87641;-14
2021/08/31 11:33:44;;;;;;;14.50;9.43;;;24.00;66.30;;;;;;6131261;22;87927;-14
2021/08/31 11:36:15;;;;;;;14.48;9.73;;;24.10;66.50;;;;;;6158244;22;88286;-14
2021/08/31 11:38:47;;;;;;;13.38;8.50;;;24.00;66.50;;;;;;6158095;22;87601;-15
2021/08/31 11:41:36;;;;;;;10.63;8.00;;;24.00;66.50;;;;;;6158874;22;88989;-14
2021/08/31 11:44:08;;;;;;;12.20;8.90;;;24.00;66.50;;;;;;6141834;22;87207;-14
2021/08/31 11:46:38;;;;;;;12.32;8.85;;;24.10;66.50;;;;;;6156359;22;89042;-16
2021/08/31 11:49:26;;;;;;;13.60;9.18;;;24.00;66.40;;;;;;6157963;22;87372;-14
2021/08/31 11:51:54;;;;;;;12.57;8.73;;;24.00;66.30;;;;;;6158014;22;89254;-14
2021/08/31 11:54:22;;;;;;;13.95;9.40;;;23.90;66.00;;;;;;6156661;22;87109;-14
2021/08/31 11:56:53;;;;;;;12.93;9.23;;;23.90;66.10;;;;;;6157317;22;87554;-14
2021/08/31 11:59:39;;;;;;;12.68;8.60;;;23.90;65.90;;;;;;6156147;22;89028;-15
2021/08/31 12:02:24;;;;;;;11.60;8.70;;;23.90;65.70;;;;;;6156630;22;88970;-14
2021/08/31 12:04:53;;;;;;;15.13;9.32;;;23.90;65.70;;;;;;6158303;22;87011;-14
2021/08/31 12:07:19;;;;;;;18.95;9.65;;;23.90;65.50;;;;;;6157304;22;87261;-14
2021/08/31 12:09:46;;;;;;;14.68;9.93;;;23.90;65.50;;;;;;6158691;22;87529;-15
2021/08/31 12:12:12;;;;;;;12.32;9.25;;;23.90;65.10;;;;;;6158181;22;87806;-14
2021/08/31 12:14:39;;;;;;;19.20;9.63;;;23.90;65.00;;;;;;6155579;22;87424;-14
2021/08/31 12:17:06;;;;;;;12.80;8.05;;;23.90;64.50;;;;;;6156372;22;87012;-15
2021/08/31 12:19:32;;;;;;;16.80;8.95;;;23.90;64.50;;;;;;6155036;22;87273;-22
2021/08/31 12:22:15;;;;;;;15.73;8.55;;;23.90;64.50;;;;;;6152793;22;88001;-16
2021/08/31 12:24:57;;;;;;;12.13;8.67;;;24.00;64.80;;;;;;6152793;22;87940;-16
2021/08/31 12:27:23;;;;;;;15.43;8.45;;;24.00;64.50;;;;;;6153033;22;87439;-19
2021/08/31 12:29:51;;;;;;;15.45;8.60;;;24.10;64.30;;;;;;6152421;22;87802;-16
2021/08/31 12:32:27;;;;;;;18.85;8.73;;;24.20;64.00;;;;;;6125534;22;88054;-14
2021/08/31 12:34:57;;;;;;;12.52;7.88;;;24.20;63.60;;;;;;6126102;22;87542;-16
2021/08/31 12:37:26;;;;;;;16.23;8.82;;;24.30;63.20;;;;;;6152606;22;87468;-15
2021/08/31 12:40:15;;;;;;;14.93;7.68;;;24.40;62.90;;;;;;6152306;22;90396;-22
2021/08/31 12:42:48;;;;;;;13.32;7.82;;;24.50;62.70;;;;;;6127104;22;87306;-15
2021/08/31 12:45:28;;;;;;;16.67;7.63;;;24.60;62.20;;;;;;6128182;22;87603;-15
2021/08/31 12:47:58;;;;;;;17.75;8.18;;;24.60;62.20;;;;;;6151751;22;87187;-15